createdAt,value
2022-10-08T00:06:10.110Z,22.7
2022-10-08T00:12:55.945Z,22.73
2022-10-08T00:19:31.017Z,22.72
2022-10-08T00:26:15.752Z,22.68
2022-10-08T00:32:48.084Z,22.65
2022-10-08T00:39:18.946Z,22.65
2022-10-08T00:46:10.969Z,22.68
2022-10-08T00:53:09.543Z,22.65
2022-10-08T00:59:37.733Z,22.63
2022-10-08T01:06:24.922Z,22.67
2022-10-08T01:13:29.806Z,22.65
2022-10-08T01:20:43.242Z,22.67
2022-10-08T01:27:59.717Z,22.68
2022-10-08T01:35:21.761Z,22.62
2022-10-08T01:42:18.965Z,22.57
2022-10-08T01:49:12.382Z,22.63
2022-10-08T01:56:19.830Z,22.67
2022-10-08T02:03:20.893Z,22.61
2022-10-08T02:09:50.874Z,22.55
2022-10-08T02:16:34.911Z,22.5
2022-10-08T02:23:52.898Z,22.5
2022-10-08T02:31:01.134Z,22.52
2022-10-08T02:38:11.888Z,22.51
2022-10-08T02:45:06.926Z,22.5
2022-10-08T02:52:09.109Z,22.45
2022-10-08T02:58:57.793Z,22.46
2022-10-08T03:06:01.022Z,22.49
2022-10-08T03:12:38.040Z,22.47
2022-10-08T03:19:27.726Z,22.51
2022-10-08T03:26:00.780Z,22.47
2022-10-08T03:32:29.880Z,22.45
2022-10-08T03:38:59.869Z,22.44
2022-10-08T03:45:28.378Z,22.46
2022-10-08T03:52:03.765Z,22.45
2022-10-08T03:58:37.084Z,22.41
2022-10-08T04:05:08.949Z,22.43
2022-10-08T04:11:46.943Z,22.44
2022-10-08T04:18:23.786Z,22.45
2022-10-08T04:24:53.358Z,22.45
2022-10-08T04:31:27.416Z,22.46
2022-10-08T04:38:09.803Z,22.46
2022-10-08T04:44:37.991Z,22.42
2022-10-08T04:51:16.577Z,22.42
2022-10-08T04:57:45.948Z,22.42
2022-10-08T05:04:18.056Z,22.47
2022-10-08T05:10:51.201Z,22.48
2022-10-08T05:17:24.246Z,22.44
2022-10-08T05:23:53.953Z,22.4
2022-10-08T05:30:45.229Z,22.46
2022-10-08T05:37:09.936Z,22.42
2022-10-08T05:43:46.253Z,22.42
2022-10-08T05:50:21.913Z,22.42
2022-10-08T05:57:02.229Z,22.42
2022-10-08T06:03:35.479Z,22.43
2022-10-08T06:10:11.264Z,22.43
2022-10-08T06:16:51.235Z,22.41
2022-10-08T06:23:21.967Z,22.44
2022-10-08T06:30:04.899Z,22.44
2022-10-08T06:36:30.875Z,22.39
2022-10-08T06:43:11.593Z,22.4
2022-10-08T06:49:36.283Z,22.42
2022-10-08T06:56:08.945Z,22.38
2022-10-08T07:02:37.159Z,22.4
2022-10-08T07:09:13.958Z,22.43
2022-10-08T07:15:53.086Z,22.41
2022-10-08T07:22:28.881Z,22.43
2022-10-08T07:29:09.070Z,22.51
2022-10-08T07:35:46.867Z,22.42
2022-10-08T07:42:31.066Z,22.45
2022-10-08T07:49:21.033Z,22.44
2022-10-08T07:55:50.156Z,22.45
2022-10-08T08:02:17.332Z,22.49
2022-10-08T08:08:53.046Z,22.49
2022-10-08T08:15:39.906Z,22.58
2022-10-08T08:22:12.039Z,22.55
2022-10-08T08:28:52.336Z,22.55
2022-10-08T08:35:40.981Z,22.48
2022-10-08T08:42:24.397Z,22.52
2022-10-08T08:49:26.891Z,22.45
2022-10-08T08:56:09.127Z,22.48
2022-10-08T09:03:15.397Z,22.47
2022-10-08T09:10:28.460Z,22.5
2022-10-08T09:17:27.407Z,22.45
2022-10-08T09:24:15.083Z,22.46
2022-10-08T09:31:25.037Z,22.48
2022-10-08T09:38:27.162Z,22.47
2022-10-08T09:45:22.049Z,22.49
2022-10-08T09:52:23.237Z,22.53
2022-10-08T09:59:12.107Z,22.55
2022-10-08T10:06:00.109Z,22.55
2022-10-08T10:13:04.916Z,22.51
2022-10-08T10:20:05.893Z,22.48
2022-10-08T10:27:17.022Z,22.54
2022-10-08T10:34:17.411Z,22.54
2022-10-08T10:41:33.822Z,22.55
2022-10-08T10:48:40.651Z,22.58
2022-10-08T10:55:45.197Z,22.63
2022-10-08T11:02:55.136Z,22.56
2022-10-08T11:10:07.506Z,22.63
2022-10-08T11:17:13.237Z,22.61
2022-10-08T11:24:31.353Z,22.57
2022-10-08T11:31:42.158Z,22.6
2022-10-08T11:38:37.061Z,22.62
2022-10-08T11:45:45.336Z,22.6
2022-10-08T11:52:33.011Z,22.66
2022-10-08T11:59:41.045Z,22.67
2022-10-08T12:06:39.129Z,22.62
2022-10-08T12:13:49.291Z,22.56
2022-10-08T12:20:44.333Z,22.56
2022-10-08T12:27:40.673Z,22.56
2022-10-08T12:34:29.336Z,22.61
2022-10-08T12:41:30.320Z,22.63
2022-10-08T12:48:35.177Z,22.64
2022-10-08T12:55:42.163Z,22.66
2022-10-08T13:02:32.622Z,22.63
2022-10-08T13:09:31.311Z,22.63
2022-10-08T13:16:17.197Z,22.64
2022-10-08T13:23:17.097Z,22.68
2022-10-08T13:30:13.415Z,22.76
2022-10-08T13:37:04.649Z,22.94
2022-10-08T13:44:02.295Z,22.93
2022-10-08T13:50:41.112Z,23.01
2022-10-08T13:57:37.136Z,23.17
2022-10-08T14:04:03.271Z,23.23
2022-10-08T14:10:43.605Z,23.28
2022-10-08T14:17:23.627Z,23.35
2022-10-08T14:23:54.389Z,23.3
2022-10-08T14:30:27.128Z,23.39
2022-10-08T14:37:01.371Z,23.47
2022-10-08T14:43:33.132Z,23.63
2022-10-08T14:50:12.670Z,23.72
2022-10-08T14:56:38.202Z,23.75
2022-10-08T15:03:12.182Z,23.66
2022-10-08T15:09:41.184Z,23.73
2022-10-08T15:16:12.302Z,23.59
2022-10-08T15:22:45.927Z,23.64
2022-10-08T15:29:20.115Z,23.54
2022-10-08T15:35:46.298Z,23.47
2022-10-08T15:42:18.441Z,23.4
2022-10-08T15:48:55.230Z,23.37
2022-10-08T15:55:31.208Z,23.34
2022-10-08T16:02:02.951Z,23.29
2022-10-08T16:08:29.955Z,23.3
2022-10-08T16:15:14.053Z,23.28
2022-10-08T16:21:46.391Z,23.24
2022-10-08T16:28:14.012Z,23.17
2022-10-08T16:34:55.445Z,23.18
2022-10-08T16:41:26.220Z,23.12
2022-10-08T16:48:00.233Z,23.12
2022-10-08T16:54:38.334Z,23.13
2022-10-08T17:01:15.399Z,23.11
2022-10-08T17:07:42.247Z,23.05
2022-10-08T17:14:06.855Z,23.03
2022-10-08T17:20:34.240Z,23.04
2022-10-08T17:27:06.279Z,23.04
2022-10-08T17:33:45.196Z,23.01
2022-10-08T17:40:11.774Z,23.02
2022-10-08T17:46:53.416Z,22.97
2022-10-08T17:53:29.581Z,22.98
2022-10-08T18:00:01.297Z,22.95
2022-10-08T18:06:32.658Z,22.95
2022-10-08T18:13:09.256Z,22.87
2022-10-08T18:19:38.090Z,22.89
2022-10-08T18:26:19.140Z,22.86
2022-10-08T18:32:48.944Z,22.83
2022-10-08T18:39:28.746Z,22.84
2022-10-08T18:45:59.657Z,22.87
2022-10-08T18:52:40.453Z,22.79
2022-10-08T18:59:08.423Z,22.87
2022-10-08T19:05:53.250Z,22.84
2022-10-08T19:12:29.441Z,22.9
2022-10-08T19:19:09.584Z,22.84
2022-10-08T19:25:44.263Z,22.82
2022-10-08T19:32:15.547Z,22.81
2022-10-08T19:38:44.856Z,22.81
2022-10-08T19:45:24.707Z,22.75
2022-10-08T19:52:05.634Z,22.75
2022-10-08T19:58:34.062Z,22.76
2022-10-08T20:04:59.529Z,22.72
2022-10-08T20:11:29.366Z,22.69
2022-10-08T20:18:06.399Z,22.68
2022-10-08T20:24:43.928Z,22.7
2022-10-08T20:31:21.654Z,22.71
2022-10-08T20:37:51.356Z,22.68
2022-10-08T20:44:24.349Z,22.69
2022-10-08T20:50:55.796Z,22.66
2022-10-08T20:57:29.767Z,22.67
2022-10-08T21:03:59.485Z,22.65
2022-10-08T21:10:25.384Z,22.66
2022-10-08T21:17:05.373Z,22.63
2022-10-08T21:23:34.179Z,22.64
2022-10-08T21:30:01.589Z,22.61
2022-10-08T21:36:34.344Z,22.64
2022-10-08T21:43:11.407Z,22.63
2022-10-08T21:49:44.702Z,22.6
2022-10-08T21:56:30.256Z,22.55
2022-10-08T22:03:06.690Z,22.6
2022-10-08T22:09:35.568Z,22.59
2022-10-08T22:16:08.272Z,22.54
2022-10-08T22:22:49.044Z,22.53
2022-10-08T22:29:18.792Z,22.54
2022-10-08T22:35:52.393Z,22.55
2022-10-08T22:42:44.373Z,22.58
2022-10-08T22:49:24.884Z,22.59
2022-10-08T22:55:59.376Z,22.52
2022-10-08T23:02:33.114Z,22.52
2022-10-08T23:09:01.134Z,22.49
2022-10-08T23:15:36.706Z,22.5
2022-10-08T23:22:06.362Z,22.54
2022-10-08T23:28:44.384Z,22.56
2022-10-08T23:35:21.330Z,22.5
2022-10-08T23:42:04.346Z,22.48
2022-10-08T23:48:32.327Z,22.47
2022-10-08T23:55:13.607Z,22.48
